createdAt,value
2019-02-20T00:00:45.208Z,8.80
2019-02-20T00:03:14.293Z,7.93
2019-02-20T00:05:43.445Z,7.93
2019-02-20T00:08:12.479Z,7.70
2019-02-20T00:10:41.588Z,6.03
2019-02-20T00:13:10.675Z,8.20
2019-02-20T00:15:39.783Z,6.80
2019-02-20T00:18:08.864Z,9.00
2019-02-20T00:20:37.971Z,9.03
2019-02-20T00:23:07.063Z,7.23
2019-02-20T00:25:36.166Z,8.23
2019-02-20T00:28:05.250Z,6.93
2019-02-20T00:30:34.341Z,7.67
2019-02-20T00:33:03.436Z,7.80
2019-02-20T00:35:32.525Z,10.40
2019-02-20T00:38:01.635Z,8.40
2019-02-20T00:40:30.711Z,7.37
2019-02-20T00:42:59.819Z,8.57
2019-02-20T00:45:47.209Z,7.80
2019-02-20T00:48:29.410Z,8.20
2019-02-20T00:51:07.546Z,6.07
2019-02-20T00:53:41.871Z,9.13
2019-02-20T00:56:10.950Z,9.57
2019-02-20T00:58:40.050Z,7.40
2019-02-20T01:01:09.138Z,10.13
2019-02-20T01:03:38.242Z,9.27
2019-02-20T01:06:07.328Z,11.10
2019-02-20T01:08:36.432Z,5.23
2019-02-20T01:11:05.514Z,8.37
2019-02-20T01:13:34.622Z,8.00
2019-02-20T01:16:03.713Z,9.30
2019-02-20T01:18:32.813Z,11.87
2019-02-20T01:21:01.902Z,12.03
2019-02-20T01:23:31.002Z,9.90
2019-02-20T01:26:00.109Z,6.60
2019-02-20T01:28:29.209Z,11.00
2019-02-20T01:30:58.296Z,10.00
2019-02-20T01:33:27.418Z,11.00
2019-02-20T01:35:56.509Z,11.30
2019-02-20T01:38:25.617Z,7.70
2019-02-20T01:40:54.705Z,13.87
2019-02-20T01:43:23.811Z,9.80
2019-02-20T01:45:52.894Z,8.70
2019-02-20T01:48:22.003Z,11.57
2019-02-20T01:50:51.110Z,9.47
2019-02-20T01:53:20.191Z,8.30
2019-02-20T01:55:49.301Z,12.13
2019-02-20T01:58:18.383Z,8.77
2019-02-20T02:00:47.492Z,13.00
2019-02-20T02:03:16.575Z,12.40
2019-02-20T02:05:45.681Z,9.43
2019-02-20T02:08:14.773Z,10.67
2019-02-20T02:10:43.883Z,13.50
2019-02-20T02:13:12.971Z,11.87
2019-02-20T02:15:42.081Z,12.73
2019-02-20T02:18:11.169Z,12.07
2019-02-20T02:20:40.304Z,11.90
2019-02-20T02:23:09.360Z,12.23
2019-02-20T02:25:38.471Z,13.07
2019-02-20T02:28:07.559Z,15.53
2019-02-20T02:30:36.652Z,8.87
2019-02-20T02:33:05.731Z,13.57
2019-02-20T02:35:34.846Z,12.03
2019-02-20T02:38:03.941Z,12.03
2019-02-20T02:40:33.050Z,9.57
2019-02-20T02:43:02.156Z,12.23
2019-02-20T02:45:31.270Z,11.13
2019-02-20T02:48:00.401Z,13.20
2019-02-20T02:50:29.511Z,13.63
2019-02-20T02:52:58.615Z,13.80
2019-02-20T02:55:27.720Z,15.60
2019-02-20T02:57:56.804Z,11.83
2019-02-20T03:00:25.908Z,15.20
2019-02-20T03:02:55.016Z,14.37
2019-02-20T03:05:24.113Z,11.63
2019-02-20T03:07:53.221Z,13.13
2019-02-20T03:10:22.327Z,15.33
2019-02-20T03:12:51.445Z,17.10
2019-02-20T03:15:20.535Z,16.73
2019-02-20T03:17:49.641Z,15.90
2019-02-20T03:20:18.732Z,12.50
2019-02-20T03:22:47.852Z,13.83
2019-02-20T03:25:16.942Z,15.13
2019-02-20T03:27:46.060Z,16.73
2019-02-20T03:30:15.139Z,15.70
2019-02-20T03:32:44.248Z,13.27
2019-02-20T03:35:13.342Z,16.83
2019-02-20T03:37:42.457Z,15.40
2019-02-20T03:40:11.562Z,20.77
2019-02-20T03:42:40.678Z,17.73
2019-02-20T03:45:09.771Z,15.27
2019-02-20T03:47:38.901Z,12.67
2019-02-20T03:50:08.064Z,15.60
2019-02-20T03:52:37.160Z,14.57
2019-02-20T03:55:06.429Z,16.70
2019-02-20T03:57:35.617Z,16.00
2019-02-20T04:00:05.403Z,16.53
2019-02-20T04:02:34.503Z,16.67
2019-02-20T04:05:03.640Z,19.63
2019-02-20T04:07:32.737Z,14.10
2019-02-20T04:10:01.847Z,17.73
2019-02-20T04:12:30.929Z,15.43
2019-02-20T04:15:00.038Z,14.50
2019-02-20T04:17:29.131Z,15.80
2019-02-20T04:19:58.241Z,14.27
2019-02-20T04:22:27.341Z,16.20
2019-02-20T04:24:56.594Z,14.03
2019-02-20T04:27:25.639Z,13.53
2019-02-20T04:29:54.754Z,18.50
2019-02-20T04:32:23.849Z,14.43
2019-02-20T04:34:52.958Z,13.20
2019-02-20T04:37:22.051Z,16.73
2019-02-20T04:39:51.146Z,16.10
2019-02-20T04:42:20.260Z,19.70
2019-02-20T04:44:49.649Z,15.13
2019-02-20T04:47:18.744Z,17.73
2019-02-20T04:49:47.857Z,15.83
2019-02-20T04:52:16.970Z,15.33
2019-02-20T04:54:46.099Z,15.07
2019-02-20T04:57:15.177Z,13.87
2019-02-20T04:59:44.278Z,15.70
2019-02-20T05:02:13.396Z,16.37
2019-02-20T05:04:42.495Z,22.37
2019-02-20T05:07:11.619Z,17.83
2019-02-20T05:09:40.727Z,20.23
2019-02-20T05:12:09.838Z,18.00
2019-02-20T05:14:38.928Z,15.90
2019-02-20T05:17:08.040Z,14.73
2019-02-20T05:19:37.138Z,16.20
2019-02-20T05:22:06.235Z,15.70
2019-02-20T05:24:35.334Z,16.87
2019-02-20T05:27:04.905Z,15.97
2019-02-20T05:29:34.350Z,22.60
2019-02-20T05:32:03.509Z,30.33
2019-02-20T05:34:32.619Z,22.03
2019-02-20T05:37:01.727Z,19.90
2019-02-20T05:39:30.818Z,23.10
2019-02-20T05:41:59.994Z,21.67
2019-02-20T05:44:29.098Z,19.27
2019-02-20T05:46:58.211Z,19.23
2019-02-20T05:49:27.304Z,20.70
2019-02-20T05:51:56.423Z,19.67
2019-02-20T05:54:34.031Z,20.70
2019-02-20T05:56:56.371Z,23.20
2019-02-20T05:59:25.499Z,21.47
2019-02-20T06:01:54.594Z,22.10
2019-02-20T06:04:23.701Z,21.67
2019-02-20T06:06:52.798Z,21.77
2019-02-20T06:09:21.933Z,23.40
2019-02-20T06:11:51.054Z,20.63
2019-02-20T06:14:20.136Z,19.60
2019-02-20T06:16:49.232Z,20.27
2019-02-20T06:19:18.346Z,22.23
2019-02-20T06:21:47.438Z,23.57
2019-02-20T06:24:16.554Z,19.90
2019-02-20T06:26:45.658Z,21.93
2019-02-20T06:29:14.767Z,22.03
2019-02-20T06:31:43.861Z,20.10
2019-02-20T06:34:12.978Z,20.77
2019-02-20T06:36:42.065Z,22.27
2019-02-20T06:39:11.186Z,20.17
2019-02-20T06:41:40.273Z,19.63
2019-02-20T06:44:09.394Z,24.17
2019-02-20T06:46:38.487Z,21.73
2019-02-20T06:49:07.578Z,21.97
2019-02-20T06:51:36.719Z,24.73
2019-02-20T06:54:05.957Z,24.90
2019-02-20T06:56:35.077Z,25.63
2019-02-20T06:59:04.174Z,27.43
2019-02-20T07:01:33.286Z,30.90
2019-02-20T07:04:02.381Z,27.50
2019-02-20T07:07:01.518Z,27.83
2019-02-20T07:10:10.048Z,26.17
2019-02-20T07:13:13.054Z,32.67
2019-02-20T07:15:59.608Z,25.40
2019-02-20T07:18:52.068Z,26.50
2019-02-20T07:21:58.958Z,24.67
2019-02-20T07:25:04.862Z,24.90
2019-02-20T07:28:24.877Z,25.83
2019-02-20T07:30:54.003Z,23.73
2019-02-20T07:33:23.081Z,24.03
2019-02-20T07:35:52.194Z,25.57
2019-02-20T07:38:21.293Z,23.90
2019-02-20T07:40:50.412Z,24.30
2019-02-20T07:43:19.500Z,25.33
2019-02-20T07:45:49.268Z,28.67
2019-02-20T07:48:18.391Z,26.13
2019-02-20T07:50:47.493Z,27.40
2019-02-20T07:53:16.606Z,28.87
2019-02-20T07:55:45.688Z,29.50
2019-02-20T07:58:14.799Z,24.83
2019-02-20T08:00:43.888Z,30.73
2019-02-20T08:03:12.987Z,21.53
2019-02-20T08:05:42.073Z,21.13
2019-02-20T08:08:11.212Z,19.63
2019-02-20T08:10:40.286Z,25.77
2019-02-20T08:13:09.563Z,21.97
2019-02-20T08:15:38.663Z,25.90
2019-02-20T08:18:07.769Z,22.80
2019-02-20T08:20:36.855Z,37.43
2019-02-20T08:23:05.974Z,21.57
2019-02-20T08:25:35.064Z,22.43
2019-02-20T08:28:04.188Z,19.53
2019-02-20T08:30:33.273Z,22.60
2019-02-20T08:33:02.429Z,17.27
2019-02-20T08:35:31.472Z,19.77
2019-02-20T08:38:00.582Z,19.80
2019-02-20T08:40:29.668Z,19.77
2019-02-20T08:42:58.778Z,20.27
2019-02-20T08:45:27.870Z,17.87
2019-02-20T08:47:56.961Z,15.67
2019-02-20T08:50:26.252Z,17.07
2019-02-20T08:52:55.385Z,16.90
2019-02-20T08:55:31.763Z,20.17
2019-02-20T08:57:55.378Z,19.63
2019-02-20T09:00:24.448Z,22.07
2019-02-20T09:02:53.536Z,23.47
2019-02-20T09:05:22.646Z,21.17
2019-02-20T09:07:51.728Z,23.93
2019-02-20T09:10:20.837Z,22.90
2019-02-20T09:12:49.921Z,23.17
2019-02-20T09:15:19.026Z,25.00
2019-02-20T09:17:48.118Z,25.40
2019-02-20T09:20:17.234Z,27.77
2019-02-20T09:22:46.323Z,28.03
2019-02-20T09:25:19.833Z,23.80
2019-02-20T09:27:46.251Z,27.30
2019-02-20T09:30:15.581Z,26.37
2019-02-20T09:32:44.698Z,23.73
2019-02-20T09:35:13.802Z,24.87
2019-02-20T09:37:42.907Z,19.63
2019-02-20T09:40:14.165Z,22.73
2019-02-20T09:42:44.829Z,23.57
2019-02-20T09:45:13.961Z,21.67
2019-02-20T09:47:43.062Z,21.03
2019-02-20T09:50:12.370Z,24.47
2019-02-20T09:52:41.517Z,21.03
2019-02-20T09:55:11.335Z,20.00
2019-02-20T09:57:59.462Z,20.30
2019-02-20T10:00:28.567Z,22.70
2019-02-20T10:02:57.694Z,24.80
2019-02-20T10:05:26.782Z,23.47
2019-02-20T10:07:55.908Z,23.73
2019-02-20T10:10:25.002Z,22.77
2019-02-20T10:12:54.130Z,21.73
2019-02-20T10:15:23.223Z,21.47
2019-02-20T10:17:52.344Z,22.63
2019-02-20T10:20:21.439Z,21.60
2019-02-20T10:22:50.560Z,22.60
2019-02-20T10:25:19.666Z,22.83
2019-02-20T10:27:48.771Z,22.47
2019-02-20T10:30:17.893Z,22.57
2019-02-20T10:32:47.021Z,21.83
2019-02-20T10:35:16.112Z,21.73
2019-02-20T10:37:45.223Z,20.87
2019-02-20T10:40:14.322Z,21.37
2019-02-20T10:42:43.445Z,18.93
2019-02-20T10:45:12.559Z,22.40
2019-02-20T10:47:41.673Z,22.60
2019-02-20T10:50:10.936Z,25.07
2019-02-20T10:52:40.095Z,25.50
2019-02-20T10:55:09.295Z,21.83
2019-02-20T10:57:38.389Z,23.77
2019-02-20T11:00:23.544Z,20.70
2019-02-20T11:02:44.721Z,21.10
2019-02-20T11:05:13.810Z,17.17
2019-02-20T11:07:42.893Z,20.80
2019-02-20T11:10:12.007Z,16.57
2019-02-20T11:12:41.102Z,16.00
2019-02-20T11:15:10.219Z,16.83
2019-02-20T11:17:39.309Z,15.17
2019-02-20T11:20:08.572Z,14.07
2019-02-20T11:22:37.655Z,12.63
2019-02-20T11:25:08.020Z,14.17
2019-02-20T11:27:37.136Z,10.83
2019-02-20T11:30:08.035Z,12.27
2019-02-20T11:32:37.140Z,12.33
2019-02-20T11:35:06.701Z,12.33
2019-02-20T11:37:35.793Z,10.10
2019-02-20T11:40:05.348Z,9.87
2019-02-20T11:42:34.432Z,11.57
2019-02-20T11:45:03.675Z,11.93
2019-02-20T11:47:33.653Z,10.77
2019-02-20T11:50:02.764Z,9.47
2019-02-20T11:52:38.179Z,9.10
2019-02-20T11:55:02.700Z,8.83
2019-02-20T11:57:31.803Z,9.50
2019-02-20T12:00:00.892Z,8.57
2019-02-20T12:02:37.328Z,9.37
2019-02-20T12:05:00.821Z,10.10
2019-02-20T12:07:30.031Z,8.00
2019-02-20T12:09:59.120Z,7.87
2019-02-20T12:12:28.326Z,9.43
2019-02-20T12:14:57.419Z,10.90
2019-02-20T12:17:26.515Z,7.33
2019-02-20T12:19:55.602Z,8.53
2019-02-20T12:22:24.706Z,7.10
2019-02-20T12:24:54.853Z,8.47
2019-02-20T12:27:23.968Z,8.90
2019-02-20T12:29:53.078Z,7.90
2019-02-20T12:32:22.182Z,7.27
2019-02-20T12:34:51.263Z,9.90
2019-02-20T12:37:20.368Z,6.13
2019-02-20T12:39:49.445Z,6.97
2019-02-20T12:42:18.549Z,7.00
2019-02-20T12:44:47.630Z,6.33
2019-02-20T12:47:16.733Z,7.13
2019-02-20T12:49:46.404Z,6.57
2019-02-20T12:52:15.496Z,6.83
2019-02-20T12:54:44.586Z,5.93
2019-02-20T12:57:13.693Z,6.57
2019-02-20T12:59:42.779Z,7.03
2019-02-20T13:02:11.862Z,7.13
2019-02-20T13:04:40.975Z,7.43
2019-02-20T13:07:10.075Z,8.63
2019-02-20T13:09:39.191Z,7.33
2019-02-20T13:12:08.294Z,6.40
2019-02-20T13:14:37.417Z,6.70
2019-02-20T13:17:06.504Z,7.47
2019-02-20T13:19:35.657Z,8.93
2019-02-20T13:22:04.709Z,7.93
2019-02-20T13:24:33.830Z,8.17
2019-02-20T13:27:07.681Z,6.93
2019-02-20T13:29:33.759Z,8.10
2019-02-20T13:32:02.847Z,8.20
2019-02-20T13:34:31.958Z,9.40
2019-02-20T13:37:01.063Z,9.77
2019-02-20T13:39:30.158Z,8.33
2019-02-20T13:41:59.248Z,8.67
2019-02-20T13:44:28.366Z,8.53
2019-02-20T13:46:57.722Z,8.07
2019-02-20T13:49:26.832Z,8.30
2019-02-20T13:51:55.942Z,9.23
2019-02-20T13:54:25.052Z,8.47
2019-02-20T13:57:01.629Z,8.73
2019-02-20T13:59:25.014Z,10.10
2019-02-20T14:01:54.473Z,8.90
2019-02-20T14:04:23.593Z,9.20
2019-02-20T14:06:52.779Z,9.97
2019-02-20T14:09:21.886Z,8.30
2019-02-20T14:11:50.973Z,8.30
2019-02-20T14:14:20.060Z,9.00
2019-02-20T14:16:49.190Z,8.53
2019-02-20T14:19:18.275Z,9.73
2019-02-20T14:21:47.397Z,8.60
2019-02-20T14:24:16.488Z,6.70
2019-02-20T14:26:45.593Z,7.53
2019-02-20T14:29:14.673Z,7.73
2019-02-20T14:31:43.795Z,8.40
2019-02-20T14:34:13.173Z,10.10
2019-02-20T14:36:42.289Z,7.67
2019-02-20T14:39:11.371Z,7.63
2019-02-20T14:41:40.479Z,7.43
2019-02-20T14:44:09.571Z,6.87
2019-02-20T14:46:38.679Z,6.97
2019-02-20T14:49:09.482Z,8.73
2019-02-20T14:51:38.681Z,10.43
2019-02-20T14:54:07.771Z,8.87
2019-02-20T14:56:36.889Z,9.20
2019-02-20T14:59:05.974Z,7.60
2019-02-20T15:01:35.091Z,8.40
2019-02-20T15:04:04.180Z,8.37
2019-02-20T15:06:33.301Z,10.30
2019-02-20T15:09:02.399Z,16.10
2019-02-20T15:11:31.500Z,10.43
2019-02-20T15:14:00.612Z,11.70
2019-02-20T15:16:29.706Z,21.73
2019-02-20T15:18:58.887Z,23.10
2019-02-20T15:21:28.060Z,8.90
2019-02-20T15:23:57.171Z,12.17
2019-02-20T15:26:26.260Z,9.10
2019-02-20T15:28:55.385Z,10.53
2019-02-20T15:31:33.156Z,8.17
2019-02-20T15:33:55.307Z,9.00
2019-02-20T15:36:24.671Z,8.33
2019-02-20T15:38:53.796Z,7.80
2019-02-20T15:41:22.870Z,7.77
2019-02-20T15:43:51.979Z,8.30
2019-02-20T15:46:21.064Z,8.67
2019-02-20T15:48:50.175Z,10.20
2019-02-20T15:51:19.284Z,8.57
2019-02-20T15:53:48.421Z,7.70
2019-02-20T15:56:17.519Z,7.57
2019-02-20T15:58:46.625Z,8.07
2019-02-20T16:01:15.710Z,8.27
2019-02-20T16:03:44.829Z,7.87
2019-02-20T16:06:13.916Z,7.70
2019-02-20T16:08:43.310Z,9.70
2019-02-20T16:11:12.404Z,8.10
2019-02-20T16:13:41.524Z,8.20
2019-02-20T16:16:11.681Z,7.97
2019-02-20T16:18:40.774Z,10.47
2019-02-20T16:21:09.698Z,10.30
2019-02-20T16:23:38.770Z,8.77
2019-02-20T16:26:07.871Z,11.43
2019-02-20T16:28:36.947Z,8.10
2019-02-20T16:31:06.059Z,8.70
2019-02-20T16:33:35.151Z,8.43
2019-02-20T16:36:04.295Z,10.60
2019-02-20T16:38:33.426Z,11.03
2019-02-20T16:41:04.626Z,14.30
2019-02-20T16:43:33.517Z,12.23
2019-02-20T16:46:02.630Z,13.30
2019-02-20T16:48:31.794Z,11.03
2019-02-20T16:51:00.929Z,10.43
2019-02-20T16:53:30.016Z,9.47
2019-02-20T16:55:59.505Z,11.10
2019-02-20T16:58:28.641Z,10.80
2019-02-20T17:00:57.752Z,10.47
2019-02-20T17:03:26.834Z,9.50
2019-02-20T17:05:55.935Z,10.73
2019-02-20T17:08:25.034Z,9.67
2019-02-20T17:10:54.489Z,9.10
2019-02-20T17:13:23.597Z,13.27
2019-02-20T17:15:52.718Z,9.23
2019-02-20T17:18:21.819Z,9.47
2019-02-20T17:20:50.908Z,11.77
2019-02-20T17:23:20.007Z,13.80
2019-02-20T17:25:49.124Z,9.80
2019-02-20T17:28:18.237Z,10.40
2019-02-20T17:30:47.310Z,11.80
2019-02-20T17:33:16.589Z,11.33
2019-02-20T17:35:45.673Z,14.90
2019-02-20T17:38:14.777Z,15.20
2019-02-20T17:40:43.873Z,13.87
2019-02-20T17:43:12.993Z,11.73
2019-02-20T17:45:42.074Z,13.77
2019-02-20T17:48:11.175Z,9.83
2019-02-20T17:50:40.278Z,11.53
2019-02-20T17:53:09.419Z,10.73
2019-02-20T17:55:38.495Z,9.17
2019-02-20T17:58:14.862Z,9.23
2019-02-20T18:00:38.669Z,8.97
2019-02-20T18:03:07.770Z,7.87
2019-02-20T18:05:36.874Z,8.57
2019-02-20T18:08:05.977Z,10.57
2019-02-20T18:10:35.060Z,8.20
2019-02-20T18:13:04.163Z,10.77
2019-02-20T18:15:33.246Z,8.30
2019-02-20T18:18:02.330Z,8.50
2019-02-20T18:20:31.432Z,9.40
2019-02-20T18:23:00.532Z,10.17
2019-02-20T18:25:29.624Z,9.20
2019-02-20T18:27:59.643Z,11.57
2019-02-20T18:30:28.789Z,12.40
2019-02-20T18:32:57.889Z,12.33
2019-02-20T18:35:26.991Z,13.43
2019-02-20T18:37:56.072Z,12.10
2019-02-20T18:40:25.175Z,12.53
2019-02-20T18:42:54.453Z,11.90
2019-02-20T18:45:23.519Z,11.93
2019-02-20T18:47:52.603Z,13.57
2019-02-20T18:50:21.715Z,12.53
2019-02-20T18:52:50.838Z,13.47
2019-02-20T18:55:19.936Z,15.90
2019-02-20T18:57:49.020Z,22.90
2019-02-20T19:00:18.388Z,18.47
2019-02-20T19:02:47.458Z,24.27
2019-02-20T19:05:18.698Z,12.30
2019-02-20T19:07:47.392Z,10.80
2019-02-20T19:10:22.754Z,11.80
2019-02-20T19:13:37.173Z,12.30
2019-02-20T19:16:57.965Z,12.27
2019-02-20T19:19:47.672Z,11.53
2019-02-20T19:22:45.314Z,12.10
2019-02-20T19:25:41.610Z,12.73
2019-02-20T19:28:44.253Z,14.60
2019-02-20T19:32:07.509Z,12.87
2019-02-20T19:35:13.158Z,28.37
2019-02-20T19:38:14.138Z,17.40
2019-02-20T19:41:29.832Z,14.40
2019-02-20T19:44:39.400Z,12.83
2019-02-20T19:47:35.228Z,12.03
2019-02-20T19:50:56.227Z,12.40
2019-02-20T19:53:59.678Z,12.90
2019-02-20T19:56:47.691Z,14.03
2019-02-20T19:59:40.415Z,11.47
2019-02-20T20:02:41.494Z,12.77
2019-02-20T20:05:57.083Z,17.30
2019-02-20T20:08:54.739Z,13.50
2019-02-20T20:12:19.953Z,14.37
2019-02-20T20:15:32.324Z,22.83
2019-02-20T20:18:53.253Z,14.60
2019-02-20T20:21:42.730Z,14.67
2019-02-20T20:24:51.040Z,17.17
2019-02-20T20:27:54.171Z,13.50
2019-02-20T20:30:56.097Z,12.57
2019-02-20T20:34:09.651Z,13.50
2019-02-20T20:37:24.241Z,13.23
2019-02-20T20:40:19.407Z,12.77
2019-02-20T20:43:12.618Z,12.77
2019-02-20T20:46:06.085Z,12.40
2019-02-20T20:49:09.742Z,12.23
2019-02-20T20:52:14.507Z,13.57
2019-02-20T20:55:03.177Z,13.67
2019-02-20T20:58:15.889Z,13.17
2019-02-20T21:01:15.307Z,11.87
2019-02-20T21:04:01.619Z,11.93
2019-02-20T21:07:10.668Z,16.13
2019-02-20T21:10:08.547Z,13.07
2019-02-20T21:13:04.872Z,15.87
2019-02-20T21:15:53.967Z,16.13
2019-02-20T21:19:01.592Z,15.23
2019-02-20T21:22:05.833Z,16.83
2019-02-20T21:25:33.657Z,15.77
2019-02-20T21:28:46.882Z,16.47
2019-02-20T21:31:48.222Z,14.53
2019-02-20T21:34:42.912Z,15.43
2019-02-20T21:37:42.522Z,14.67
2019-02-20T21:40:22.519Z,19.30
2019-02-20T21:43:47.276Z,15.47
2019-02-20T21:46:51.743Z,16.23
2019-02-20T21:50:04.642Z,16.50
2019-02-20T21:53:10.722Z,13.87
2019-02-20T21:56:26.399Z,13.90
2019-02-20T21:59:11.870Z,13.27
2019-02-20T22:02:23.604Z,81.37
2019-02-20T22:05:14.014Z,16.53
2019-02-20T22:08:02.322Z,11.33
2019-02-20T22:11:11.179Z,13.73
2019-02-20T22:14:05.475Z,13.13
2019-02-20T22:16:56.501Z,12.37
2019-02-20T22:20:18.342Z,11.07
2019-02-20T22:23:20.395Z,11.93
2019-02-20T22:26:20.739Z,12.57
2019-02-20T22:29:09.639Z,10.50
2019-02-20T22:32:12.956Z,11.77
2019-02-20T22:35:12.030Z,10.20
2019-02-20T22:38:23.679Z,11.27
2019-02-20T22:41:15.124Z,11.57
2019-02-20T22:44:40.283Z,11.43
2019-02-20T22:47:38.193Z,13.27
2019-02-20T22:50:49.902Z,13.33
2019-02-20T22:53:42.583Z,13.07
2019-02-20T22:57:10.229Z,10.00
2019-02-20T23:00:01.483Z,11.20
2019-02-20T23:02:50.300Z,11.67
2019-02-20T23:06:15.193Z,12.23
2019-02-20T23:09:03.998Z,11.80
2019-02-20T23:11:50.751Z,10.77
2019-02-20T23:14:48.451Z,13.47
2019-02-20T23:17:17.559Z,13.53
2019-02-20T23:19:46.633Z,10.70
2019-02-20T23:22:15.740Z,13.27
2019-02-20T23:24:44.836Z,14.57
2019-02-20T23:27:13.940Z,14.47
2019-02-20T23:29:43.027Z,12.90
2019-02-20T23:32:12.130Z,13.40
2019-02-20T23:34:41.221Z,11.73
2019-02-20T23:37:10.307Z,11.17
2019-02-20T23:39:39.414Z,13.17
2019-02-20T23:42:08.502Z,13.57
2019-02-20T23:44:37.599Z,12.47
2019-02-20T23:47:06.690Z,13.00
2019-02-20T23:49:35.798Z,13.50
2019-02-20T23:52:04.897Z,13.97
2019-02-20T23:54:34.000Z,13.87
2019-02-20T23:57:03.078Z,12.50
2019-02-20T23:59:32.178Z,13.03
